createdAt,value
2019-04-07T00:00:53.093Z,0.00
2019-04-07T00:01:53.000Z,0.00
2019-04-07T00:02:52.976Z,0.00
2019-04-07T00:03:53.270Z,0.00
2019-04-07T00:04:53.454Z,0.00
2019-04-07T00:05:52.925Z,0.00
2019-04-07T00:06:53.271Z,0.00
2019-04-07T00:07:53.035Z,0.00
2019-04-07T00:08:52.751Z,0.00
2019-04-07T00:09:52.699Z,0.00
2019-04-07T00:10:52.852Z,0.00
2019-04-07T00:11:53.497Z,0.00
2019-04-07T00:12:52.597Z,0.00
2019-04-07T00:13:52.575Z,0.00
2019-04-07T00:14:52.495Z,0.00
2019-04-07T00:15:52.482Z,0.00
2019-04-07T00:16:53.126Z,0.00
2019-04-07T00:17:53.141Z,0.00
2019-04-07T00:18:52.411Z,0.00
2019-04-07T00:19:52.338Z,0.00
2019-04-07T00:20:52.850Z,0.00
2019-04-07T00:21:52.213Z,0.00
2019-04-07T00:22:52.329Z,0.00
2019-04-07T00:23:52.157Z,0.00
2019-04-07T00:24:52.088Z,0.00
2019-04-07T00:25:52.082Z,0.00
2019-04-07T00:26:52.459Z,0.00
2019-04-07T00:27:51.982Z,0.00
2019-04-07T00:28:52.001Z,0.00
2019-04-07T00:29:52.675Z,0.00
2019-04-07T00:30:51.947Z,0.00
2019-04-07T00:31:52.297Z,0.00
2019-04-07T00:32:52.030Z,0.00
2019-04-07T00:33:51.772Z,0.00
2019-04-07T00:34:53.303Z,0.00
2019-04-07T00:35:52.062Z,0.00
2019-04-07T00:36:52.182Z,0.00
2019-04-07T00:37:51.751Z,0.00
2019-04-07T00:38:51.597Z,0.00
2019-04-07T00:39:51.601Z,0.00
2019-04-07T00:40:51.508Z,0.00
2019-04-07T00:41:51.829Z,0.00
2019-04-07T00:42:51.411Z,0.00
2019-04-07T00:43:51.796Z,0.00
2019-04-07T00:44:51.311Z,0.00
2019-04-07T00:45:51.315Z,0.00
2019-04-07T00:46:51.244Z,0.00
2019-04-07T00:47:51.444Z,0.00
2019-04-07T00:48:51.227Z,0.00
2019-04-07T00:49:51.262Z,0.00
2019-04-07T00:50:51.290Z,0.00
2019-04-07T00:51:51.375Z,0.00
2019-04-07T00:52:51.322Z,0.00
2019-04-07T00:53:51.027Z,0.00
2019-04-07T00:54:51.326Z,0.00
2019-04-07T00:55:50.883Z,0.00
2019-04-07T00:56:51.150Z,0.00
2019-04-07T00:57:50.863Z,0.00
2019-04-07T00:58:50.761Z,0.00
2019-04-07T00:59:50.718Z,0.00
2019-04-07T01:00:50.743Z,0.00
2019-04-07T01:01:50.648Z,0.00
2019-04-07T01:02:50.601Z,0.00
2019-04-07T01:03:50.584Z,0.00
2019-04-07T01:04:50.644Z,0.00
2019-04-07T01:05:51.063Z,0.00
2019-04-07T01:06:50.437Z,0.00
2019-04-07T01:07:50.943Z,0.00
2019-04-07T01:08:50.361Z,0.00
2019-04-07T01:09:50.752Z,0.00
2019-04-07T01:10:50.836Z,0.00
2019-04-07T01:11:50.750Z,0.00
2019-04-07T01:12:50.225Z,0.00
2019-04-07T01:13:50.576Z,0.00
2019-04-07T01:14:50.143Z,0.00
2019-04-07T01:15:50.611Z,0.00
2019-04-07T01:16:50.737Z,0.00
2019-04-07T01:17:50.188Z,0.00
2019-04-07T01:18:50.235Z,0.00
2019-04-07T01:19:49.940Z,0.00
2019-04-07T01:20:49.968Z,0.00
2019-04-07T01:21:49.992Z,0.00
2019-04-07T01:22:50.143Z,0.00
2019-04-07T01:23:50.205Z,0.00
2019-04-07T01:24:49.730Z,0.00
2019-04-07T01:25:50.070Z,0.00
2019-04-07T01:26:49.768Z,0.00
2019-04-07T01:27:50.030Z,0.00
2019-04-07T01:28:49.541Z,0.00
2019-04-07T01:29:49.486Z,0.00
2019-04-07T01:30:49.495Z,0.00
2019-04-07T01:31:49.500Z,0.00
2019-04-07T01:32:51.338Z,0.00
2019-04-07T01:33:49.454Z,0.00
2019-04-07T01:34:49.412Z,0.00
2019-04-07T01:35:50.350Z,0.00
2019-04-07T01:36:49.232Z,0.00
2019-04-07T01:37:49.480Z,0.00
2019-04-07T01:38:49.174Z,0.00
2019-04-07T01:39:49.238Z,0.00
2019-04-07T01:40:49.302Z,0.00
2019-04-07T01:41:49.541Z,0.00
2019-04-07T01:42:48.999Z,0.00
2019-04-07T01:43:49.394Z,0.00
2019-04-07T01:44:49.691Z,0.00
2019-04-07T01:45:48.880Z,0.00
2019-04-07T01:46:49.207Z,0.00
2019-04-07T01:47:48.800Z,0.00
2019-04-07T01:48:48.729Z,0.00
2019-04-07T01:49:48.700Z,0.00
2019-04-07T01:50:49.278Z,0.00
2019-04-07T01:51:48.783Z,0.00
2019-04-07T01:52:49.190Z,0.00
2019-04-07T01:53:48.609Z,0.00
2019-04-07T01:54:48.497Z,0.00
2019-04-07T01:55:48.468Z,0.00
2019-04-07T01:56:49.009Z,0.00
2019-04-07T01:57:48.637Z,0.00
2019-04-07T01:58:48.376Z,0.00
2019-04-07T01:59:48.325Z,0.00
2019-04-07T02:00:48.410Z,0.00
2019-04-07T02:01:48.249Z,0.00
2019-04-07T02:02:48.733Z,0.00
2019-04-07T02:03:48.415Z,0.00
2019-04-07T02:04:48.091Z,0.00
2019-04-07T02:05:58.376Z,0.00
2019-04-07T02:06:48.663Z,0.00
2019-04-07T02:07:48.004Z,0.00
2019-04-07T02:08:47.934Z,0.00
2019-04-07T02:09:47.921Z,0.00
2019-04-07T02:10:47.845Z,0.00
2019-04-07T02:11:47.916Z,0.00
2019-04-07T02:12:47.856Z,0.00
2019-04-07T02:13:48.287Z,0.00
2019-04-07T02:14:47.741Z,0.00
2019-04-07T02:15:48.190Z,0.00
2019-04-07T02:16:47.620Z,0.00
2019-04-07T02:17:48.122Z,0.00
2019-04-07T02:18:48.108Z,0.00
2019-04-07T02:19:48.223Z,0.00
2019-04-07T02:20:47.613Z,0.00
2019-04-07T02:21:47.551Z,0.00
2019-04-07T02:22:47.383Z,0.00
2019-04-07T02:23:47.338Z,0.00
2019-04-07T02:24:47.292Z,0.00
2019-04-07T02:25:47.273Z,0.00
2019-04-07T02:26:47.238Z,0.00
2019-04-07T02:27:47.823Z,0.00
2019-04-07T02:28:47.277Z,0.00
2019-04-07T02:29:47.779Z,0.00
2019-04-07T02:30:48.028Z,0.00
2019-04-07T02:31:47.193Z,0.00
2019-04-07T02:32:47.148Z,0.00
2019-04-07T02:33:47.020Z,0.00
2019-04-07T02:34:46.878Z,0.00
2019-04-07T02:35:46.852Z,0.00
2019-04-07T02:36:46.802Z,0.00
2019-04-07T02:37:46.781Z,0.00
2019-04-07T02:38:46.735Z,0.00
2019-04-07T02:39:46.804Z,0.00
2019-04-07T02:40:47.307Z,0.00
2019-04-07T02:41:46.689Z,0.00
2019-04-07T02:42:46.559Z,0.00
2019-04-07T02:43:46.685Z,0.00
2019-04-07T02:44:46.598Z,0.00
2019-04-07T02:45:46.477Z,0.00
2019-04-07T02:46:46.415Z,0.00
2019-04-07T02:47:46.810Z,0.00
2019-04-07T02:48:46.823Z,0.00
2019-04-07T02:49:46.287Z,0.00
2019-04-07T02:50:46.554Z,0.00
2019-04-07T02:51:46.205Z,0.00
2019-04-07T02:52:46.192Z,0.00
2019-04-07T02:53:46.988Z,0.00
2019-04-07T02:54:46.389Z,0.00
2019-04-07T02:55:46.044Z,0.00
2019-04-07T02:56:46.197Z,0.00
2019-04-07T02:57:47.421Z,0.00
2019-04-07T02:58:46.328Z,0.00
2019-04-07T02:59:46.411Z,0.00
2019-04-07T03:00:46.792Z,0.00
2019-04-07T03:01:46.725Z,0.00
2019-04-07T03:02:45.813Z,0.00
2019-04-07T03:03:46.490Z,0.00
2019-04-07T03:04:46.081Z,0.00
2019-04-07T03:05:45.673Z,0.00
2019-04-07T03:06:50.001Z,0.00
2019-04-07T03:07:47.239Z,0.00
2019-04-07T03:08:45.510Z,0.00
2019-04-07T03:09:45.553Z,0.00
2019-04-07T03:10:46.039Z,0.00
2019-04-07T03:11:45.404Z,0.00
2019-04-07T03:12:45.407Z,0.00
2019-04-07T03:13:45.284Z,0.00
2019-04-07T03:14:45.620Z,0.00
2019-04-07T03:15:46.178Z,0.00
2019-04-07T03:16:45.185Z,0.00
2019-04-07T03:17:45.816Z,0.00
2019-04-07T03:18:45.121Z,0.00
2019-04-07T03:19:45.420Z,0.00
2019-04-07T03:20:45.494Z,0.00
2019-04-07T03:21:45.782Z,0.00
2019-04-07T03:22:45.790Z,0.00
2019-04-07T03:23:45.794Z,0.00
2019-04-07T03:24:44.892Z,0.00
2019-04-07T03:25:45.189Z,0.00
2019-04-07T03:26:44.788Z,0.00
2019-04-07T03:27:44.725Z,0.00
2019-04-07T03:28:44.697Z,0.00
2019-04-07T03:29:45.272Z,0.00
2019-04-07T03:30:45.870Z,0.00
2019-04-07T03:31:46.734Z,0.00
2019-04-07T03:32:46.741Z,0.00
2019-04-07T03:33:48.176Z,0.00
2019-04-07T03:34:44.907Z,0.00
2019-04-07T03:35:46.112Z,0.00
2019-04-07T03:37:12.600Z,0.00
2019-04-07T03:37:47.190Z,0.00
2019-04-07T03:38:44.269Z,0.00
2019-04-07T03:39:44.246Z,0.00
2019-04-07T03:40:44.304Z,0.00
2019-04-07T03:41:44.171Z,0.00
2019-04-07T03:42:44.146Z,0.00
2019-04-07T03:43:44.141Z,0.00
2019-04-07T03:44:44.862Z,0.00
2019-04-07T03:45:43.975Z,0.00
2019-04-07T03:46:45.521Z,0.00
2019-04-07T03:47:43.897Z,0.00
2019-04-07T03:48:44.504Z,0.00
2019-04-07T03:49:43.810Z,0.00
2019-04-07T03:50:44.338Z,0.00
2019-04-07T03:51:44.009Z,0.00
2019-04-07T03:52:44.859Z,0.00
2019-04-07T03:53:43.630Z,0.00
2019-04-07T03:54:43.638Z,0.00
2019-04-07T03:55:43.840Z,0.00
2019-04-07T03:56:43.653Z,0.00
2019-04-07T03:57:43.516Z,0.00
2019-04-07T03:58:44.173Z,0.00
2019-04-07T03:59:43.423Z,0.00
2019-04-07T04:00:43.491Z,0.00
2019-04-07T04:01:43.657Z,4.00
2019-04-07T04:02:44.255Z,4.00
2019-04-07T04:03:44.031Z,0.00
2019-04-07T04:04:43.656Z,4.00
2019-04-07T04:05:43.398Z,8.00
2019-04-07T04:06:43.108Z,4.00
2019-04-07T04:07:44.114Z,8.00
2019-04-07T04:08:43.050Z,8.00
2019-04-07T04:09:43.024Z,12.00
2019-04-07T04:10:43.571Z,8.00
2019-04-07T04:11:43.675Z,16.00
2019-04-07T04:12:43.606Z,20.00
2019-04-07T04:13:44.273Z,20.00
2019-04-07T04:14:43.231Z,24.00
2019-04-07T04:15:43.525Z,28.00
2019-04-07T04:16:42.726Z,36.00
2019-04-07T04:17:42.683Z,40.00
2019-04-07T04:18:42.722Z,48.00
2019-04-07T04:19:42.811Z,60.00
2019-04-07T04:20:42.588Z,72.00
2019-04-07T04:21:44.263Z,84.00
2019-04-07T04:22:43.154Z,96.00
2019-04-07T04:23:43.551Z,108.00
2019-04-07T04:24:43.621Z,128.00
2019-04-07T04:25:42.901Z,152.00
2019-04-07T04:26:42.312Z,172.00
2019-04-07T04:27:43.030Z,200.00
2019-04-07T04:28:42.964Z,224.00
2019-04-07T04:29:42.246Z,252.00
2019-04-07T04:30:42.138Z,284.00
2019-04-07T04:31:42.233Z,320.00
2019-04-07T04:32:42.051Z,360.00
2019-04-07T04:33:42.138Z,400.00
2019-04-07T04:34:41.971Z,444.00
2019-04-07T04:35:42.730Z,488.00
2019-04-07T04:36:41.873Z,536.00
2019-04-07T04:37:48.161Z,588.00
2019-04-07T04:38:41.921Z,644.00
2019-04-07T04:39:41.899Z,704.00
2019-04-07T04:40:42.590Z,768.00
2019-04-07T04:41:42.476Z,828.00
2019-04-07T04:42:42.071Z,900.00
2019-04-07T04:43:42.323Z,972.00
2019-04-07T04:44:42.251Z,1044.00
2019-04-07T04:45:41.501Z,1124.00
2019-04-07T04:46:41.485Z,1200.00
2019-04-07T04:47:41.433Z,1284.00
2019-04-07T04:48:41.383Z,1368.00
2019-04-07T04:49:41.720Z,1460.00
2019-04-07T04:50:42.041Z,1552.00
2019-04-07T04:51:42.450Z,1648.00
2019-04-07T04:52:41.226Z,1744.00
2019-04-07T04:53:42.297Z,1848.00
2019-04-07T04:54:42.057Z,1948.00
2019-04-07T04:55:41.148Z,2056.00
2019-04-07T04:56:41.427Z,2164.00
2019-04-07T04:57:41.062Z,2276.00
2019-04-07T04:58:40.959Z,2392.00
2019-04-07T04:59:40.974Z,2512.00
2019-04-07T05:00:41.459Z,2624.00
2019-04-07T05:01:40.850Z,2744.00
2019-04-07T05:02:41.340Z,2864.00
2019-04-07T05:03:40.761Z,2988.00
2019-04-07T05:04:40.762Z,3116.00
2019-04-07T05:05:41.396Z,3248.00
2019-04-07T05:06:41.318Z,3376.00
2019-04-07T05:07:51.709Z,3508.00
2019-04-07T05:08:40.577Z,3644.00
2019-04-07T05:09:46.635Z,3780.00
2019-04-07T05:10:40.623Z,3908.00
2019-04-07T05:11:40.820Z,4036.00
2019-04-07T05:12:40.405Z,4160.00
2019-04-07T05:13:41.133Z,4292.00
2019-04-07T05:14:40.351Z,4424.00
2019-04-07T05:15:40.325Z,4556.00
2019-04-07T05:16:40.228Z,4684.00
2019-04-07T05:17:40.326Z,4820.00
2019-04-07T05:18:40.157Z,4948.00
2019-04-07T05:19:42.803Z,5084.00
2019-04-07T05:20:40.073Z,5212.00
2019-04-07T05:21:40.456Z,5344.00
2019-04-07T05:22:40.007Z,5476.00
2019-04-07T05:23:40.508Z,5600.00
2019-04-07T05:24:40.068Z,5732.00
2019-04-07T05:25:40.334Z,5860.00
2019-04-07T05:26:40.482Z,5992.00
2019-04-07T05:27:40.361Z,6124.00
2019-04-07T05:28:39.744Z,6248.00
2019-04-07T05:29:40.125Z,6372.00
2019-04-07T05:30:40.232Z,6496.00
2019-04-07T05:31:40.147Z,6612.00
2019-04-07T05:32:39.991Z,6736.00
2019-04-07T05:33:39.954Z,6880.00
2019-04-07T05:34:40.182Z,7016.00
2019-04-07T05:35:39.550Z,7136.00
2019-04-07T05:36:41.345Z,7232.00
2019-04-07T05:37:39.446Z,7336.00
2019-04-07T05:38:39.543Z,7448.00
2019-04-07T05:39:39.499Z,7584.00
2019-04-07T05:40:39.956Z,7748.00
2019-04-07T05:41:39.261Z,7820.00
2019-04-07T05:42:39.165Z,7896.00
2019-04-07T05:43:39.162Z,8016.00
2019-04-07T05:44:39.739Z,8136.00
2019-04-07T05:45:39.065Z,8248.00
2019-04-07T05:46:42.321Z,8368.00
2019-04-07T05:47:43.531Z,8512.00
2019-04-07T05:48:39.164Z,8572.00
2019-04-07T05:49:38.963Z,8728.00
2019-04-07T05:50:39.513Z,8876.00
2019-04-07T05:51:39.030Z,8968.00
2019-04-07T05:52:40.511Z,9120.00
2019-04-07T05:53:38.873Z,9228.00
2019-04-07T05:54:39.384Z,9212.00
2019-04-07T05:55:39.297Z,9464.00
2019-04-07T05:56:39.223Z,10400.00
2019-04-07T05:57:38.778Z,11072.00
2019-04-07T05:58:40.823Z,10920.00
2019-04-07T05:59:39.935Z,10772.00
2019-04-07T06:00:39.120Z,10748.00
2019-04-07T06:01:39.035Z,10432.00
2019-04-07T06:02:38.387Z,10224.00
2019-04-07T06:03:41.275Z,10676.00
2019-04-07T06:04:38.279Z,10896.00
2019-04-07T06:05:38.506Z,10700.00
2019-04-07T06:06:41.467Z,10864.00
2019-04-07T06:07:38.179Z,11244.00
2019-04-07T06:08:40.060Z,11512.00
2019-04-07T06:09:38.073Z,11300.00
2019-04-07T06:10:38.709Z,11628.00
2019-04-07T06:11:38.703Z,12316.00
2019-04-07T06:12:40.862Z,11648.00
2019-04-07T06:13:38.042Z,12676.00
2019-04-07T06:14:38.882Z,14604.00
2019-04-07T06:15:38.177Z,13760.00
2019-04-07T06:16:37.866Z,12400.00
2019-04-07T06:17:37.923Z,12060.00
2019-04-07T06:18:37.951Z,12176.00
2019-04-07T06:19:41.135Z,12244.00
2019-04-07T06:20:37.969Z,12492.00
2019-04-07T06:21:37.874Z,12364.00
2019-04-07T06:22:38.020Z,12184.00
2019-04-07T06:23:37.616Z,12148.00
2019-04-07T06:24:37.504Z,12156.00
2019-04-07T06:25:41.552Z,12480.00
2019-04-07T06:26:40.906Z,12744.00
2019-04-07T06:27:38.284Z,12404.00
2019-04-07T06:28:38.071Z,12356.00
2019-04-07T06:29:37.790Z,12456.00
2019-04-07T06:30:37.938Z,12644.00
2019-04-07T06:31:37.228Z,12884.00
2019-04-07T06:32:38.482Z,13172.00
2019-04-07T06:33:38.209Z,13172.00
2019-04-07T06:34:39.740Z,13484.00
2019-04-07T06:35:37.919Z,14600.00
2019-04-07T06:36:37.541Z,15400.00
2019-04-07T06:37:37.388Z,16264.00
2019-04-07T06:38:41.549Z,16356.00
2019-04-07T06:39:37.376Z,14688.00
2019-04-07T06:40:37.280Z,13996.00
2019-04-07T06:41:36.844Z,14800.00
2019-04-07T06:42:37.440Z,15344.00
2019-04-07T06:43:38.416Z,15384.00
2019-04-07T06:44:36.844Z,15404.00
2019-04-07T06:45:36.722Z,14740.00
2019-04-07T06:46:36.884Z,14492.00
2019-04-07T06:47:37.166Z,15416.00
2019-04-07T06:48:39.717Z,16424.00
2019-04-07T06:49:37.078Z,17592.00
2019-04-07T06:50:47.730Z,19136.00
2019-04-07T06:51:37.201Z,20128.00
2019-04-07T06:52:40.604Z,23808.00
2019-04-07T06:53:36.462Z,26944.00
2019-04-07T06:54:36.394Z,27328.00
2019-04-07T06:55:36.349Z,28544.00
2019-04-07T06:56:36.996Z,29536.00
2019-04-07T06:57:37.736Z,29472.00
2019-04-07T06:58:41.349Z,29440.00
2019-04-07T06:59:36.176Z,30336.00
2019-04-07T07:00:36.462Z,31680.00
2019-04-07T07:01:36.161Z,34432.00
2019-04-07T07:02:36.084Z,37664.00
2019-04-07T07:03:38.824Z,38464.00
2019-04-07T07:04:36.726Z,39392.00
2019-04-07T07:05:36.261Z,40640.00
2019-04-07T07:06:35.956Z,40032.00
2019-04-07T07:07:36.391Z,67840.00
2019-04-07T07:08:44.518Z,45600.00
2019-04-07T07:09:35.969Z,45280.00
2019-04-07T07:10:39.004Z,45792.00
2019-04-07T07:11:40.698Z,48640.00
2019-04-07T07:12:38.802Z,43200.00
2019-04-07T07:13:36.729Z,43872.00
2019-04-07T07:14:43.291Z,42912.00
2019-04-07T07:15:36.469Z,43072.00
2019-04-07T07:16:36.169Z,44256.00
2019-04-07T07:17:35.655Z,43296.00
2019-04-07T07:18:35.776Z,42976.00
2019-04-07T07:19:35.591Z,45216.00
2019-04-07T07:20:36.124Z,45696.00
2019-04-07T07:21:38.711Z,45152.00
2019-04-07T07:22:35.737Z,44096.00
2019-04-07T07:23:35.450Z,44896.00
2019-04-07T07:24:35.899Z,46752.00
2019-04-07T07:25:36.302Z,48288.00
2019-04-07T07:26:35.591Z,51264.00
2019-04-07T07:27:38.910Z,51168.00
2019-04-07T07:28:36.028Z,50848.00
2019-04-07T07:29:35.349Z,50464.00
2019-04-07T07:30:35.853Z,49568.00
2019-04-07T07:31:35.779Z,50720.00
2019-04-07T07:32:37.262Z,50944.00
2019-04-07T07:33:38.926Z,51360.00
2019-04-07T07:34:35.841Z,50944.00
2019-04-07T07:35:35.148Z,49760.00
2019-04-07T07:36:35.125Z,49216.00
2019-04-07T07:37:35.359Z,50752.00
2019-04-07T07:38:35.092Z,53184.00
2019-04-07T07:39:35.116Z,53024.00
2019-04-07T07:40:35.219Z,53440.00
2019-04-07T07:41:35.615Z,52064.00
2019-04-07T07:42:35.545Z,51744.00
2019-04-07T07:43:35.000Z,53696.00
2019-04-07T07:44:38.168Z,52960.00
2019-04-07T07:45:34.975Z,53408.00
2019-04-07T07:46:34.923Z,55552.00
2019-04-07T07:47:34.875Z,59008.00
2019-04-07T07:48:35.601Z,60864.00
2019-04-07T07:49:39.819Z,59424.00
2019-04-07T07:50:38.083Z,55648.00
2019-04-07T07:51:37.653Z,54592.00
2019-04-07T07:52:35.152Z,55104.00
2019-04-07T07:53:34.755Z,57600.00
2019-04-07T07:54:35.224Z,58048.00
2019-04-07T07:55:37.664Z,56352.00
2019-04-07T07:56:34.707Z,56704.00
2019-04-07T07:57:35.458Z,55744.00
2019-04-07T07:58:35.499Z,41824.00
2019-04-07T07:59:37.974Z,40096.00
2019-04-07T08:00:40.022Z,42048.00
2019-04-07T08:01:34.736Z,50688.00
2019-04-07T08:02:35.184Z,61664.00
2019-04-07T08:03:35.118Z,63200.00
2019-04-07T08:04:34.608Z,61344.00
2019-04-07T08:05:34.669Z,65728.00
2019-04-07T08:06:34.641Z,66464.00
2019-04-07T08:07:34.778Z,43392.00
2019-04-07T08:08:35.085Z,42336.00
2019-04-07T08:09:34.405Z,46752.00
2019-04-07T08:10:35.016Z,62176.00
2019-04-07T08:11:34.733Z,60544.00
2019-04-07T08:12:34.924Z,57312.00
2019-04-07T08:13:41.561Z,51552.00
2019-04-07T08:14:34.922Z,51488.00
2019-04-07T08:15:34.620Z,46784.00
2019-04-07T08:16:34.641Z,42560.00
2019-04-07T08:17:34.249Z,49664.00
2019-04-07T08:18:36.176Z,54720.00
2019-04-07T08:19:34.208Z,66976.00
2019-04-07T08:20:34.886Z,73440.00
2019-04-07T08:21:34.252Z,68160.00
2019-04-07T08:22:40.565Z,63328.00
2019-04-07T08:23:34.168Z,50848.00
2019-04-07T08:24:34.080Z,47072.00
2019-04-07T08:25:34.666Z,64064.00
2019-04-07T08:26:34.046Z,68256.00
2019-04-07T08:27:34.402Z,59264.00
2019-04-07T08:28:35.893Z,51648.00
2019-04-07T08:29:37.135Z,51648.00
2019-04-07T08:30:33.980Z,49856.00
2019-04-07T08:31:34.794Z,48800.00
2019-04-07T08:32:34.287Z,69120.00
2019-04-07T08:33:34.276Z,72288.00
2019-04-07T08:34:33.856Z,74208.00
2019-04-07T08:35:38.134Z,65472.00
2019-04-07T08:36:33.893Z,65056.00
2019-04-07T08:37:34.091Z,72512.00
2019-04-07T08:38:34.369Z,53536.00
2019-04-07T08:39:35.460Z,53792.00
2019-04-07T08:40:36.502Z,46464.00
2019-04-07T08:41:33.974Z,52832.00
2019-04-07T08:42:33.683Z,62528.00
2019-04-07T08:43:34.078Z,49888.00
2019-04-07T08:44:34.407Z,49952.00
2019-04-07T08:45:33.626Z,85312.00
2019-04-07T08:46:39.856Z,84480.00
2019-04-07T08:47:34.353Z,72992.00
2019-04-07T08:48:33.560Z,74816.00
2019-04-07T08:49:35.329Z,72576.00
2019-04-07T08:50:34.274Z,80928.00
2019-04-07T08:51:36.151Z,84896.00
2019-04-07T08:52:34.306Z,82144.00
2019-04-07T08:53:34.162Z,80480.00
2019-04-07T08:54:33.467Z,81216.00
2019-04-07T08:55:33.564Z,84736.00
2019-04-07T08:56:34.128Z,81600.00
2019-04-07T08:57:33.419Z,78912.00
2019-04-07T08:58:37.910Z,81152.00
2019-04-07T08:59:33.323Z,80544.00
2019-04-07T09:00:33.616Z,78880.00
2019-04-07T09:01:33.340Z,78048.00
2019-04-07T09:02:33.268Z,74592.00
2019-04-07T09:03:33.256Z,76704.00
2019-04-07T09:04:33.214Z,74656.00
2019-04-07T09:05:33.494Z,75744.00
2019-04-07T09:06:33.263Z,75104.00
2019-04-07T09:07:34.240Z,76576.00
2019-04-07T09:08:36.106Z,82848.00
2019-04-07T09:09:36.314Z,80928.00
2019-04-07T09:10:34.347Z,77248.00
2019-04-07T09:11:33.575Z,69952.00
2019-04-07T09:12:33.898Z,70656.00
2019-04-07T09:13:34.135Z,76032.00
2019-04-07T09:14:33.000Z,81472.00
2019-04-07T09:15:33.005Z,82144.00
2019-04-07T09:16:33.674Z,82272.00
2019-04-07T09:17:40.101Z,84640.00
2019-04-07T09:18:33.475Z,86688.00
2019-04-07T09:19:35.013Z,88448.00
2019-04-07T09:20:32.896Z,85248.00
2019-04-07T09:21:38.722Z,82912.00
2019-04-07T09:22:32.871Z,84192.00
2019-04-07T09:23:32.873Z,87968.00
2019-04-07T09:24:33.533Z,92800.00
2019-04-07T09:25:33.184Z,90176.00
2019-04-07T09:26:33.318Z,81216.00
2019-04-07T09:27:32.769Z,73920.00
2019-04-07T09:28:33.178Z,74336.00
2019-04-07T09:29:32.706Z,78592.00
2019-04-07T09:30:32.725Z,72928.00
2019-04-07T09:31:33.257Z,68992.00
2019-04-07T09:32:33.413Z,66912.00
2019-04-07T09:33:34.801Z,74976.00
2019-04-07T09:34:33.418Z,78432.00
2019-04-07T09:35:33.212Z,74144.00
2019-04-07T09:36:33.556Z,71648.00
2019-04-07T09:37:33.344Z,69312.00
2019-04-07T09:38:33.334Z,78656.00
2019-04-07T09:39:50.655Z,79360.00
2019-04-07T09:40:32.494Z,83488.00
2019-04-07T09:41:32.468Z,87392.00
2019-04-07T09:42:32.457Z,83744.00
2019-04-07T09:43:32.438Z,88352.00
2019-04-07T09:44:36.346Z,82528.00
2019-04-07T09:45:32.440Z,78464.00
2019-04-07T09:46:32.550Z,73248.00
2019-04-07T09:47:32.352Z,72768.00
2019-04-07T09:48:33.258Z,78304.00
2019-04-07T09:49:32.401Z,81408.00
2019-04-07T09:50:32.435Z,80768.00
2019-04-07T09:51:33.064Z,84224.00
2019-04-07T09:52:32.293Z,87840.00
2019-04-07T09:53:32.261Z,86048.00
2019-04-07T09:54:32.419Z,91008.00
2019-04-07T09:55:32.181Z,93312.00
2019-04-07T09:56:33.480Z,89312.00
2019-04-07T09:57:35.468Z,85632.00
2019-04-07T09:58:32.146Z,89536.00
2019-04-07T09:59:32.778Z,86688.00
2019-04-07T10:00:32.128Z,82944.00
2019-04-07T10:01:32.939Z,82656.00
2019-04-07T10:02:34.724Z,80672.00
2019-04-07T10:03:32.031Z,82560.00
2019-04-07T10:04:32.029Z,86816.00
2019-04-07T10:05:32.000Z,89056.00
2019-04-07T10:06:31.968Z,88768.00
2019-04-07T10:07:33.319Z,92224.00
2019-04-07T10:08:32.655Z,91680.00
2019-04-07T10:09:32.230Z,89824.00
2019-04-07T10:10:31.964Z,94592.00
2019-04-07T10:11:31.843Z,93120.00
2019-04-07T10:12:32.111Z,88288.00
2019-04-07T10:13:32.493Z,85760.00
2019-04-07T10:14:31.806Z,90368.00
2019-04-07T10:15:31.790Z,82688.00
2019-04-07T10:16:33.863Z,91904.00
2019-04-07T10:17:31.834Z,95392.00
2019-04-07T10:18:33.683Z,92064.00
2019-04-07T10:19:31.742Z,96544.00
2019-04-07T10:20:32.530Z,98400.00
2019-04-07T10:21:32.407Z,102048.00
2019-04-07T10:22:32.053Z,97984.00
2019-04-07T10:23:32.133Z,84160.00
2019-04-07T10:24:32.519Z,92160.00
2019-04-07T10:25:31.580Z,87744.00
2019-04-07T10:26:31.542Z,91168.00
2019-04-07T10:27:31.517Z,98176.00
2019-04-07T10:28:32.149Z,103232.00
2019-04-07T10:29:31.880Z,98752.00
2019-04-07T10:30:31.635Z,93536.00
2019-04-07T10:31:31.642Z,92832.00
2019-04-07T10:32:31.885Z,93184.00
2019-04-07T10:33:31.616Z,95232.00
2019-04-07T10:34:31.994Z,101504.00
2019-04-07T10:35:31.355Z,106176.00
2019-04-07T10:36:31.890Z,102208.00
2019-04-07T10:37:31.499Z,101760.00
2019-04-07T10:38:31.722Z,97664.00
2019-04-07T10:39:31.309Z,95808.00
2019-04-07T10:40:31.265Z,104224.00
2019-04-07T10:41:31.255Z,109728.00
2019-04-07T10:42:31.227Z,103488.00
2019-04-07T10:43:31.370Z,99072.00
2019-04-07T10:44:31.464Z,109632.00
2019-04-07T10:45:31.169Z,115200.00
2019-04-07T10:46:31.126Z,120416.00
2019-04-07T10:47:31.113Z,108832.00
2019-04-07T10:48:31.708Z,96768.00
2019-04-07T10:49:31.116Z,92128.00
2019-04-07T10:50:31.415Z,100256.00
2019-04-07T10:51:31.894Z,103488.00
2019-04-07T10:52:31.444Z,104032.00
2019-04-07T10:53:32.234Z,109600.00
2019-04-07T10:54:31.419Z,109472.00
2019-04-07T10:55:30.939Z,104192.00
2019-04-07T10:56:30.937Z,99712.00
2019-04-07T10:57:30.899Z,101568.00
2019-04-07T10:58:31.291Z,93728.00
2019-04-07T10:59:30.886Z,102752.00
2019-04-07T11:00:31.283Z,115968.00
2019-04-07T11:01:31.083Z,77728.00
2019-04-07T11:02:31.435Z,100736.00
2019-04-07T11:03:30.775Z,33824.00
2019-04-07T11:04:30.732Z,85152.00
2019-04-07T11:05:31.321Z,99616.00
2019-04-07T11:06:31.710Z,31872.00
2019-04-07T11:07:30.676Z,34688.00
2019-04-07T11:08:30.953Z,41952.00
2019-04-07T11:09:30.645Z,61504.00
2019-04-07T11:10:36.668Z,40096.00
2019-04-07T11:11:31.398Z,119200.00
2019-04-07T11:12:30.596Z,39104.00
2019-04-07T11:13:30.936Z,99520.00
2019-04-07T11:14:30.523Z,108416.00
2019-04-07T11:15:30.705Z,111424.00
2019-04-07T11:16:31.231Z,111712.00
2019-04-07T11:17:30.439Z,106208.00
2019-04-07T11:18:30.448Z,105024.00
2019-04-07T11:19:31.062Z,106496.00
2019-04-07T11:20:30.393Z,112736.00
2019-04-07T11:21:30.461Z,116448.00
2019-04-07T11:22:30.878Z,119104.00
2019-04-07T11:23:30.320Z,121632.00
2019-04-07T11:24:31.475Z,108064.00
2019-04-07T11:25:30.276Z,51136.00
2019-04-07T11:26:30.872Z,46944.00
2019-04-07T11:27:31.113Z,41504.00
2019-04-07T11:28:30.643Z,43168.00
2019-04-07T11:29:30.167Z,66272.00
2019-04-07T11:30:30.776Z,54880.00
2019-04-07T11:31:30.961Z,42944.00
2019-04-07T11:32:30.489Z,84992.00
2019-04-07T11:33:30.137Z,46144.00
2019-04-07T11:34:30.454Z,41248.00
2019-04-07T11:35:31.085Z,45152.00
2019-04-07T11:36:30.015Z,123712.00
2019-04-07T11:37:30.858Z,78400.00
2019-04-07T11:38:29.987Z,44608.00
2019-04-07T11:39:30.723Z,53440.00
2019-04-07T11:40:41.556Z,37856.00
2019-04-07T11:41:30.611Z,32992.00
2019-04-07T11:42:30.597Z,31104.00
2019-04-07T11:43:30.488Z,35136.00
2019-04-07T11:44:29.842Z,112544.00
2019-04-07T11:45:29.803Z,113504.00
2019-04-07T11:46:30.508Z,120672.00
2019-04-07T11:47:29.883Z,123360.00
2019-04-07T11:48:29.731Z,85152.00
2019-04-07T11:49:30.207Z,117536.00
2019-04-07T11:50:29.917Z,133952.00
2019-04-07T11:51:30.315Z,110496.00
2019-04-07T11:52:29.650Z,134272.00
2019-04-07T11:53:29.651Z,86752.00
2019-04-07T11:54:29.609Z,46048.00
2019-04-07T11:55:30.238Z,37952.00
2019-04-07T11:56:29.632Z,94464.00
2019-04-07T11:57:30.176Z,96576.00
2019-04-07T11:58:32.299Z,39168.00
2019-04-07T11:59:29.503Z,38400.00
2019-04-07T12:00:30.028Z,36320.00
2019-04-07T12:01:30.162Z,66752.00
2019-04-07T12:02:29.422Z,68160.00
2019-04-07T12:03:29.943Z,67072.00
2019-04-07T12:04:29.518Z,68544.00
2019-04-07T12:05:29.361Z,67072.00
2019-04-07T12:06:29.975Z,67264.00
2019-04-07T12:07:29.276Z,64288.00
2019-04-07T12:08:33.556Z,33696.00
2019-04-07T12:09:29.304Z,42944.00
2019-04-07T12:10:29.994Z,33536.00
2019-04-07T12:11:29.924Z,34400.00
2019-04-07T12:12:29.977Z,34304.00
2019-04-07T12:13:29.708Z,34080.00
2019-04-07T12:14:29.135Z,61312.00
2019-04-07T12:15:30.178Z,62144.00
2019-04-07T12:16:30.530Z,62080.00
2019-04-07T12:17:29.997Z,31840.00